createdAt,value
2017-06-23T00:00:08.365Z,0
2017-06-23T00:01:09.746Z,0
2017-06-23T00:02:11.137Z,0
2017-06-23T00:03:12.520Z,0
2017-06-23T00:04:13.899Z,0
2017-06-23T00:05:15.276Z,0
2017-06-23T00:06:16.667Z,0
2017-06-23T00:07:18.051Z,0
2017-06-23T00:08:19.428Z,0
2017-06-23T00:09:20.814Z,0
2017-06-23T00:10:22.206Z,0
2017-06-23T00:11:23.593Z,0
2017-06-23T00:12:24.982Z,0
2017-06-23T00:13:26.364Z,0
2017-06-23T00:14:27.749Z,0
2017-06-23T00:15:29.128Z,0
2017-06-23T00:16:30.506Z,0
2017-06-23T00:17:31.896Z,0
2017-06-23T00:18:33.276Z,0
2017-06-23T00:19:34.653Z,0
2017-06-23T00:20:36.037Z,0
2017-06-23T00:21:37.415Z,0
2017-06-23T00:22:38.797Z,0
2017-06-23T00:23:40.180Z,0
2017-06-23T00:24:41.569Z,0
2017-06-23T00:25:42.942Z,0
2017-06-23T00:26:44.317Z,0
2017-06-23T00:27:45.694Z,0
2017-06-23T00:28:47.083Z,0
2017-06-23T00:29:48.468Z,0
2017-06-23T00:30:49.856Z,0
2017-06-23T00:31:51.236Z,0
2017-06-23T00:32:52.617Z,0
2017-06-23T00:33:53.990Z,0
2017-06-23T00:34:55.371Z,0
2017-06-23T00:35:56.760Z,0
2017-06-23T00:36:58.137Z,0
2017-06-23T00:37:59.512Z,0
2017-06-23T00:39:00.893Z,0
2017-06-23T00:40:02.285Z,0
2017-06-23T00:41:03.666Z,0
2017-06-23T00:42:05.047Z,0
2017-06-23T00:43:06.428Z,0
2017-06-23T00:44:07.799Z,0
2017-06-23T00:45:09.191Z,0
2017-06-23T00:46:10.577Z,0
2017-06-23T00:47:11.969Z,0
2017-06-23T00:48:13.351Z,0
2017-06-23T00:49:14.738Z,0
2017-06-23T00:50:16.123Z,0
2017-06-23T00:51:17.513Z,0
2017-06-23T00:52:18.892Z,0
2017-06-23T00:53:20.274Z,0
2017-06-23T00:54:21.650Z,0
2017-06-23T00:55:23.037Z,0
2017-06-23T00:56:24.418Z,0
2017-06-23T00:57:25.806Z,0
2017-06-23T00:58:27.186Z,0
2017-06-23T00:59:28.568Z,0
2017-06-23T01:00:29.942Z,0
2017-06-23T01:01:31.333Z,0
2017-06-23T01:02:32.763Z,0
2017-06-23T01:03:34.148Z,0
2017-06-23T01:04:35.526Z,0
2017-06-23T01:05:36.909Z,0
2017-06-23T01:06:38.293Z,0
2017-06-23T01:07:39.679Z,0
2017-06-23T01:08:41.058Z,0
2017-06-23T01:09:42.433Z,0
2017-06-23T01:10:43.825Z,0
2017-06-23T01:11:45.216Z,0
2017-06-23T01:12:46.608Z,0
2017-06-23T01:13:47.988Z,0
2017-06-23T01:14:49.381Z,0
2017-06-23T01:15:50.769Z,0
2017-06-23T01:16:52.148Z,0
2017-06-23T01:17:53.527Z,0
2017-06-23T01:18:54.911Z,0
2017-06-23T01:19:56.290Z,0
2017-06-23T01:20:57.668Z,0
2017-06-23T01:21:59.053Z,0
2017-06-23T01:23:00.444Z,0
2017-06-23T01:24:01.830Z,0
2017-06-23T01:25:03.225Z,0
2017-06-23T01:26:04.595Z,0
2017-06-23T01:27:05.977Z,0
2017-06-23T01:28:07.352Z,0
2017-06-23T01:29:08.743Z,0
2017-06-23T01:30:10.128Z,0
2017-06-23T01:31:11.508Z,0
2017-06-23T01:32:12.893Z,0
2017-06-23T01:33:14.275Z,0
2017-06-23T01:34:15.654Z,0
2017-06-23T01:35:17.034Z,0
2017-06-23T01:36:18.452Z,0
2017-06-23T01:37:19.834Z,0
2017-06-23T01:38:21.223Z,0
2017-06-23T01:39:22.603Z,0
2017-06-23T01:40:23.990Z,0
2017-06-23T01:41:25.368Z,0
2017-06-23T01:42:26.760Z,0
2017-06-23T01:43:28.143Z,0
2017-06-23T01:44:29.527Z,0
2017-06-23T01:45:30.906Z,0
2017-06-23T01:46:32.285Z,0
2017-06-23T01:47:33.675Z,0
2017-06-23T01:48:35.053Z,0
2017-06-23T01:49:36.435Z,0
2017-06-23T01:50:37.814Z,0
2017-06-23T01:51:39.196Z,0
2017-06-23T01:52:40.578Z,0
2017-06-23T01:53:41.971Z,0
2017-06-23T01:54:43.349Z,0
2017-06-23T01:55:44.730Z,0
2017-06-23T01:56:46.110Z,0
2017-06-23T01:57:47.495Z,0
2017-06-23T01:58:48.874Z,0
2017-06-23T01:59:50.255Z,0
2017-06-23T02:00:51.635Z,0
2017-06-23T02:01:53.013Z,0
2017-06-23T02:02:54.393Z,0
2017-06-23T02:03:55.775Z,0
2017-06-23T02:04:57.157Z,0
2017-06-23T02:05:58.538Z,0
2017-06-23T02:06:59.915Z,0
2017-06-23T02:08:01.296Z,0
2017-06-23T02:09:02.684Z,0
2017-06-23T02:10:04.068Z,0
2017-06-23T02:11:05.444Z,0
2017-06-23T02:12:06.825Z,0
2017-06-23T02:13:08.206Z,0
2017-06-23T02:14:09.593Z,0
2017-06-23T02:15:10.975Z,0
2017-06-23T02:16:12.369Z,0
2017-06-23T02:17:13.786Z,0
2017-06-23T02:18:15.180Z,0
2017-06-23T02:19:16.564Z,0
2017-06-23T02:20:17.941Z,0
2017-06-23T02:21:19.327Z,0
2017-06-23T02:22:20.705Z,0
2017-06-23T02:23:22.089Z,0
2017-06-23T02:24:23.466Z,0
2017-06-23T02:25:24.844Z,0
2017-06-23T02:26:26.223Z,0
2017-06-23T02:27:27.615Z,0
2017-06-23T02:28:28.998Z,0
2017-06-23T02:29:30.384Z,0
2017-06-23T02:30:31.761Z,0
2017-06-23T02:31:33.149Z,0
2017-06-23T02:32:34.528Z,0
2017-06-23T02:33:35.906Z,0
2017-06-23T02:34:37.290Z,0
2017-06-23T02:35:38.672Z,0
2017-06-23T02:36:40.056Z,0
2017-06-23T02:37:41.435Z,0
2017-06-23T02:38:42.819Z,0
2017-06-23T02:39:44.195Z,0
2017-06-23T02:40:45.575Z,0
2017-06-23T02:41:46.955Z,0
2017-06-23T02:42:48.415Z,0
2017-06-23T02:43:49.798Z,0
2017-06-23T02:44:51.177Z,0
2017-06-23T02:45:52.556Z,0
2017-06-23T02:46:53.933Z,0
2017-06-23T02:47:55.314Z,0
2017-06-23T02:48:56.698Z,0
2017-06-23T02:49:58.072Z,0
2017-06-23T02:50:59.462Z,0
2017-06-23T02:52:00.845Z,0
2017-06-23T02:53:02.228Z,4
2017-06-23T02:54:03.598Z,4
2017-06-23T02:55:04.984Z,0
2017-06-23T02:56:06.360Z,0
2017-06-23T02:57:07.746Z,4
2017-06-23T02:58:09.133Z,4
2017-06-23T02:59:10.516Z,4
2017-06-23T03:00:11.894Z,4
2017-06-23T03:01:13.281Z,4
2017-06-23T03:02:14.666Z,4
2017-06-23T03:03:16.052Z,4
2017-06-23T03:04:17.438Z,8
2017-06-23T03:05:18.816Z,8
2017-06-23T03:06:20.199Z,12
2017-06-23T03:07:21.586Z,12
2017-06-23T03:08:22.966Z,12
2017-06-23T03:09:24.350Z,12
2017-06-23T03:10:25.735Z,16
2017-06-23T03:11:27.132Z,16
2017-06-23T03:12:28.519Z,20
2017-06-23T03:13:29.898Z,20
2017-06-23T03:14:31.288Z,20
2017-06-23T03:15:32.707Z,24
2017-06-23T03:16:34.137Z,24
2017-06-23T03:17:35.520Z,24
2017-06-23T03:18:36.900Z,24
2017-06-23T03:19:38.291Z,28
2017-06-23T03:20:39.669Z,28
2017-06-23T03:21:41.049Z,32
2017-06-23T03:22:42.443Z,32
2017-06-23T03:23:43.825Z,32
2017-06-23T03:24:45.206Z,36
2017-06-23T03:25:46.594Z,32
2017-06-23T03:26:47.979Z,32
2017-06-23T03:27:49.356Z,36
2017-06-23T03:28:50.739Z,32
2017-06-23T03:29:52.125Z,32
2017-06-23T03:30:53.507Z,32
2017-06-23T03:31:54.892Z,36
2017-06-23T03:32:56.279Z,40
2017-06-23T03:33:57.663Z,40
2017-06-23T03:34:59.048Z,40
2017-06-23T03:36:00.447Z,44
2017-06-23T03:37:01.840Z,44
2017-06-23T03:38:03.221Z,48
2017-06-23T03:39:04.602Z,52
2017-06-23T03:40:05.987Z,52
2017-06-23T03:41:07.377Z,52
2017-06-23T03:42:08.758Z,56
2017-06-23T03:43:10.147Z,60
2017-06-23T03:44:11.524Z,64
2017-06-23T03:45:12.908Z,64
2017-06-23T03:46:14.281Z,64
2017-06-23T03:47:15.666Z,68
2017-06-23T03:48:17.043Z,72
2017-06-23T03:49:18.427Z,68
2017-06-23T03:50:19.808Z,68
2017-06-23T03:51:21.188Z,68
2017-06-23T03:52:22.626Z,64
2017-06-23T03:53:24.004Z,76
2017-06-23T03:54:25.385Z,72
2017-06-23T03:55:26.770Z,72
2017-06-23T03:56:28.152Z,72
2017-06-23T03:57:29.539Z,72
2017-06-23T03:58:30.917Z,80
2017-06-23T03:59:32.292Z,84
2017-06-23T04:00:33.681Z,88
2017-06-23T04:01:35.054Z,88
2017-06-23T04:02:36.442Z,72
2017-06-23T04:03:37.822Z,72
2017-06-23T04:04:39.209Z,64
2017-06-23T04:05:40.589Z,72
2017-06-23T04:06:41.975Z,76
2017-06-23T04:07:43.357Z,72
2017-06-23T04:08:44.813Z,64
2017-06-23T04:09:46.198Z,76
2017-06-23T04:10:47.576Z,64
2017-06-23T04:11:48.955Z,80
2017-06-23T04:12:50.335Z,84
2017-06-23T04:13:51.742Z,96
2017-06-23T04:14:53.115Z,104
2017-06-23T04:15:54.499Z,124
2017-06-23T04:16:55.877Z,132
2017-06-23T04:17:57.262Z,136
2017-06-23T04:18:58.651Z,128
2017-06-23T04:20:00.038Z,136
2017-06-23T04:21:01.418Z,172
2017-06-23T04:22:02.804Z,164
2017-06-23T04:23:04.191Z,152
2017-06-23T04:24:05.576Z,216
2017-06-23T04:25:06.960Z,244
2017-06-23T04:26:08.421Z,200
2017-06-23T04:27:09.812Z,228
2017-06-23T04:28:11.194Z,252
2017-06-23T04:29:12.579Z,296
2017-06-23T04:30:13.964Z,300
2017-06-23T04:31:15.350Z,304
2017-06-23T04:32:16.741Z,304
2017-06-23T04:33:18.124Z,308
2017-06-23T04:34:19.509Z,352
2017-06-23T04:35:20.898Z,436
2017-06-23T04:36:22.279Z,404
2017-06-23T04:37:23.659Z,388
2017-06-23T04:38:25.044Z,388
2017-06-23T04:39:26.425Z,404
2017-06-23T04:40:27.808Z,416
2017-06-23T04:41:29.198Z,424
2017-06-23T04:42:30.578Z,440
2017-06-23T04:43:31.976Z,412
2017-06-23T04:44:33.352Z,440
2017-06-23T04:45:34.760Z,468
2017-06-23T04:46:36.139Z,444
2017-06-23T04:47:37.526Z,404
2017-06-23T04:48:38.911Z,424
2017-06-23T04:49:40.294Z,448
2017-06-23T04:50:41.675Z,460
2017-06-23T04:51:43.055Z,360
2017-06-23T04:52:44.438Z,336
2017-06-23T04:53:45.823Z,424
2017-06-23T04:54:47.211Z,444
2017-06-23T04:55:48.595Z,420
2017-06-23T04:56:49.989Z,404
2017-06-23T04:57:51.373Z,392
2017-06-23T04:58:52.757Z,408
2017-06-23T04:59:54.135Z,440
2017-06-23T05:00:55.520Z,480
2017-06-23T05:01:56.905Z,508
2017-06-23T05:02:58.292Z,524
2017-06-23T05:03:59.670Z,468
2017-06-23T05:05:01.057Z,520
2017-06-23T05:06:02.443Z,604
2017-06-23T05:07:03.858Z,588
2017-06-23T05:08:05.242Z,596
2017-06-23T05:09:06.621Z,464
2017-06-23T05:10:08.007Z,396
2017-06-23T05:11:09.399Z,432
2017-06-23T05:12:10.787Z,332
2017-06-23T05:13:12.169Z,340
2017-06-23T05:14:13.555Z,392
2017-06-23T05:15:14.943Z,508
2017-06-23T05:16:16.329Z,612
2017-06-23T05:17:17.714Z,712
2017-06-23T05:18:19.099Z,736
2017-06-23T05:19:20.491Z,764
2017-06-23T05:20:21.879Z,620
2017-06-23T05:21:23.257Z,464
2017-06-23T05:22:24.645Z,424
2017-06-23T05:23:26.038Z,440
2017-06-23T05:24:27.431Z,416
2017-06-23T05:25:28.816Z,460
2017-06-23T05:26:30.199Z,452
2017-06-23T05:27:31.585Z,504
2017-06-23T05:28:32.972Z,792
2017-06-23T05:29:34.357Z,748
2017-06-23T05:30:35.742Z,436
2017-06-23T05:31:37.128Z,460
2017-06-23T05:32:38.524Z,544
2017-06-23T05:33:39.897Z,632
2017-06-23T05:34:41.276Z,664
2017-06-23T05:35:42.669Z,552
2017-06-23T05:36:44.160Z,328
2017-06-23T05:37:45.547Z,404
2017-06-23T05:38:46.930Z,400
2017-06-23T05:39:48.312Z,428
2017-06-23T05:40:49.695Z,460
2017-06-23T05:41:51.096Z,444
2017-06-23T05:42:52.479Z,492
2017-06-23T05:43:53.867Z,512
2017-06-23T05:44:55.254Z,464
2017-06-23T05:45:56.641Z,480
2017-06-23T05:46:58.034Z,416
2017-06-23T05:47:59.422Z,540
2017-06-23T05:49:00.809Z,496
2017-06-23T05:50:02.193Z,480
2017-06-23T05:51:03.574Z,500
2017-06-23T05:52:04.963Z,488
2017-06-23T05:53:06.347Z,652
2017-06-23T05:54:07.734Z,664
2017-06-23T05:55:09.115Z,504
2017-06-23T05:56:10.505Z,436
2017-06-23T05:57:12.335Z,504
2017-06-23T05:58:13.720Z,496
2017-06-23T05:59:15.109Z,500
2017-06-23T06:00:16.495Z,552
2017-06-23T06:01:17.881Z,576
2017-06-23T06:02:19.263Z,508
2017-06-23T06:03:20.648Z,456
2017-06-23T06:04:22.033Z,576
2017-06-23T06:05:23.411Z,652
2017-06-23T06:06:24.795Z,692
2017-06-23T06:07:26.191Z,716
2017-06-23T06:08:27.573Z,848
2017-06-23T06:09:28.957Z,784
2017-06-23T06:10:30.564Z,752
2017-06-23T06:11:31.949Z,584
2017-06-23T06:12:33.670Z,468
2017-06-23T06:13:35.058Z,828
2017-06-23T06:14:36.589Z,820
2017-06-23T06:15:38.255Z,928
2017-06-23T06:16:39.637Z,980
2017-06-23T06:17:41.025Z,760
2017-06-23T06:18:42.611Z,624
2017-06-23T06:19:43.995Z,640
2017-06-23T06:20:45.382Z,680
2017-06-23T06:21:46.767Z,740
2017-06-23T06:22:48.157Z,764
2017-06-23T06:23:49.546Z,788
2017-06-23T06:24:50.940Z,548
2017-06-23T06:25:52.337Z,360
2017-06-23T06:26:53.737Z,312
2017-06-23T06:27:55.099Z,288
2017-06-23T06:28:56.485Z,392
2017-06-23T06:29:57.877Z,576
2017-06-23T06:30:59.267Z,664
2017-06-23T06:32:00.651Z,708
2017-06-23T06:33:02.061Z,756
2017-06-23T06:34:03.450Z,760
2017-06-23T06:35:05.167Z,724
2017-06-23T06:36:06.449Z,752
2017-06-23T06:37:08.049Z,744
2017-06-23T06:38:09.437Z,808
2017-06-23T06:39:10.831Z,756
2017-06-23T06:40:12.389Z,736
2017-06-23T06:41:13.770Z,852
2017-06-23T06:42:15.160Z,988
2017-06-23T06:43:16.543Z,1040
2017-06-23T06:44:17.934Z,996
2017-06-23T06:45:19.308Z,1044
2017-06-23T06:46:20.698Z,816
2017-06-23T06:47:22.093Z,652
2017-06-23T06:48:23.480Z,812
2017-06-23T06:49:24.873Z,916
2017-06-23T06:50:26.264Z,1268
2017-06-23T06:51:27.642Z,1284
2017-06-23T06:52:29.045Z,1380
2017-06-23T06:53:30.436Z,1596
2017-06-23T06:54:31.820Z,1584
2017-06-23T06:55:33.215Z,1468
2017-06-23T06:56:34.598Z,1528
2017-06-23T06:57:35.991Z,1536
2017-06-23T06:58:37.378Z,1460
2017-06-23T06:59:38.768Z,1488
2017-06-23T07:00:40.160Z,1452
2017-06-23T07:01:41.544Z,1456
2017-06-23T07:02:42.932Z,1440
2017-06-23T07:03:44.314Z,1556
2017-06-23T07:04:45.703Z,1536
2017-06-23T07:05:47.092Z,1408
2017-06-23T07:06:48.572Z,1468
2017-06-23T07:07:49.970Z,1452
2017-06-23T07:08:51.364Z,1288
2017-06-23T07:09:52.801Z,1260
2017-06-23T07:10:54.230Z,1368
2017-06-23T07:11:55.675Z,1344
2017-06-23T07:12:57.065Z,1344
2017-06-23T07:13:58.460Z,1492
2017-06-23T07:14:59.844Z,1668
2017-06-23T07:16:01.229Z,1796
2017-06-23T07:17:02.619Z,1756
2017-06-23T07:18:04.002Z,1784
2017-06-23T07:19:05.394Z,1820
2017-06-23T07:20:06.776Z,1792
2017-06-23T07:21:08.162Z,1708
2017-06-23T07:22:09.547Z,1724
2017-06-23T07:23:10.927Z,1780
2017-06-23T07:24:12.319Z,1744
2017-06-23T07:25:14.301Z,1724
2017-06-23T07:26:15.698Z,1728
2017-06-23T07:27:17.086Z,1800
2017-06-23T07:28:18.469Z,1808
2017-06-23T07:29:19.862Z,1760
2017-06-23T07:30:21.246Z,1668
2017-06-23T07:31:22.629Z,1664
2017-06-23T07:32:24.013Z,1620
2017-06-23T07:33:25.402Z,1432
2017-06-23T07:34:26.791Z,1436
2017-06-23T07:35:28.177Z,1332
2017-06-23T07:36:29.572Z,1264
2017-06-23T07:37:30.958Z,1432
2017-06-23T07:38:32.342Z,1460
2017-06-23T07:39:33.723Z,1416
2017-06-23T07:40:35.114Z,1484
2017-06-23T07:41:36.501Z,1508
2017-06-23T07:42:37.895Z,1556
2017-06-23T07:43:39.281Z,856
2017-06-23T07:44:40.680Z,1804
2017-06-23T07:45:42.070Z,1896
2017-06-23T07:46:43.463Z,1856
2017-06-23T07:47:44.849Z,1760
2017-06-23T07:48:46.241Z,1828
2017-06-23T07:49:47.628Z,1804
2017-06-23T07:50:49.025Z,1752
2017-06-23T07:51:50.411Z,1380
2017-06-23T07:52:51.799Z,1280
2017-06-23T07:53:53.183Z,1096
2017-06-23T07:54:54.570Z,992
2017-06-23T07:55:55.959Z,1188
2017-06-23T07:56:57.354Z,1592
2017-06-23T07:57:58.741Z,1724
2017-06-23T07:59:00.133Z,1600
2017-06-23T08:00:01.518Z,1540
2017-06-23T08:01:03.247Z,1644
2017-06-23T08:02:04.607Z,1620
2017-06-23T08:03:05.996Z,1492
2017-06-23T08:04:07.382Z,1400
2017-06-23T08:05:08.766Z,1540
2017-06-23T08:06:10.155Z,1460
2017-06-23T08:07:11.548Z,1288
2017-06-23T08:08:13.656Z,1184
2017-06-23T08:09:15.107Z,1452
2017-06-23T08:10:16.499Z,1712
2017-06-23T08:11:17.888Z,1880
2017-06-23T08:12:19.305Z,1960
2017-06-23T08:13:20.692Z,1936
2017-06-23T08:14:22.082Z,1980
2017-06-23T08:15:23.483Z,1916
2017-06-23T08:16:24.877Z,1752
2017-06-23T08:17:26.265Z,1940
2017-06-23T08:18:27.659Z,2056
2017-06-23T08:19:29.045Z,1820
2017-06-23T08:20:30.450Z,1828
2017-06-23T08:21:31.815Z,2024
2017-06-23T08:22:33.207Z,1908
2017-06-23T08:23:34.593Z,1504
2017-06-23T08:24:36.021Z,1588
2017-06-23T08:25:37.410Z,1732
2017-06-23T08:26:38.796Z,2056
2017-06-23T08:27:40.188Z,1780
2017-06-23T08:28:41.578Z,1844
2017-06-23T08:29:42.960Z,1516
2017-06-23T08:30:44.351Z,1392
2017-06-23T08:31:45.737Z,1672
2017-06-23T08:32:47.118Z,1792
2017-06-23T08:33:48.500Z,1832
2017-06-23T08:34:49.892Z,1916
2017-06-23T08:35:51.278Z,1820
2017-06-23T08:36:52.662Z,1700
2017-06-23T08:37:54.048Z,1396
2017-06-23T08:38:55.436Z,1364
2017-06-23T08:39:56.827Z,1624
2017-06-23T08:40:58.222Z,1792
2017-06-23T08:41:59.605Z,1912
2017-06-23T08:43:00.987Z,1764
2017-06-23T08:44:02.371Z,1592
2017-06-23T08:45:03.767Z,1824
2017-06-23T08:46:05.162Z,1984
2017-06-23T08:47:06.550Z,2052
2017-06-23T08:48:07.930Z,2164
2017-06-23T08:49:09.323Z,2224
2017-06-23T08:50:10.710Z,2224
2017-06-23T08:51:12.103Z,2260
2017-06-23T08:52:13.496Z,2316
2017-06-23T08:53:14.880Z,2268
2017-06-23T08:54:16.269Z,2084
2017-06-23T08:55:17.674Z,1992
2017-06-23T08:56:19.058Z,1828
2017-06-23T08:57:20.448Z,1748
2017-06-23T08:58:21.837Z,1672
2017-06-23T08:59:23.227Z,1764
2017-06-23T09:00:24.698Z,1660
2017-06-23T09:01:26.084Z,1524
2017-06-23T09:02:27.473Z,1672
2017-06-23T09:03:28.858Z,1844
2017-06-23T09:04:30.246Z,1836
2017-06-23T09:05:31.639Z,1956
2017-06-23T09:06:33.026Z,1776
2017-06-23T09:07:34.410Z,1436
2017-06-23T09:08:35.802Z,1500
2017-06-23T09:09:37.289Z,1412
2017-06-23T09:10:38.696Z,1616
2017-06-23T09:11:40.090Z,1484
2017-06-23T09:12:42.000Z,1808
2017-06-23T09:13:43.381Z,1780
2017-06-23T09:14:44.775Z,2040
2017-06-23T09:15:46.170Z,2240
2017-06-23T09:16:47.564Z,2452
2017-06-23T09:17:48.950Z,2120
2017-06-23T09:18:50.344Z,1520
2017-06-23T09:19:51.728Z,1252
2017-06-23T09:20:53.114Z,1412
2017-06-23T09:21:54.509Z,1784
2017-06-23T09:22:55.901Z,2072
2017-06-23T09:23:58.222Z,1776
2017-06-23T09:24:59.609Z,1572
2017-06-23T09:26:00.996Z,1172
2017-06-23T09:27:02.384Z,1048
2017-06-23T09:28:03.770Z,1228
2017-06-23T09:29:05.169Z,1492
2017-06-23T09:30:06.557Z,2116
2017-06-23T09:31:07.947Z,2416
2017-06-23T09:32:09.345Z,2464
2017-06-23T09:33:10.727Z,2452
2017-06-23T09:34:12.118Z,2668
2017-06-23T09:35:13.507Z,2428
2017-06-23T09:36:14.899Z,2200
2017-06-23T09:37:16.285Z,2164
2017-06-23T09:38:17.672Z,2428
2017-06-23T09:39:19.058Z,2868
2017-06-23T09:40:20.451Z,2928
2017-06-23T09:41:21.828Z,3212
2017-06-23T09:42:23.216Z,3268
2017-06-23T09:43:24.609Z,3088
2017-06-23T09:44:25.997Z,2624
2017-06-23T09:45:27.396Z,2288
2017-06-23T09:46:28.778Z,2392
2017-06-23T09:47:30.190Z,2520
2017-06-23T09:48:31.575Z,2524
2017-06-23T09:49:32.970Z,2680
2017-06-23T09:50:34.362Z,2556
2017-06-23T09:51:35.751Z,2460
2017-06-23T09:52:37.150Z,2028
2017-06-23T09:53:38.540Z,1940
2017-06-23T09:54:39.929Z,1764
2017-06-23T09:55:41.314Z,1656
2017-06-23T09:56:42.703Z,1572
2017-06-23T09:57:44.097Z,1688
2017-06-23T09:58:46.249Z,1860
2017-06-23T09:59:47.642Z,1572
2017-06-23T10:00:49.032Z,1548
2017-06-23T10:01:50.422Z,1716
2017-06-23T10:02:51.807Z,1864
2017-06-23T10:03:53.195Z,1972
2017-06-23T10:04:54.645Z,2184
2017-06-23T10:05:56.037Z,2380
2017-06-23T10:06:57.430Z,2512
2017-06-23T10:07:58.818Z,2644
2017-06-23T10:09:00.215Z,2564
2017-06-23T10:10:01.608Z,2592
2017-06-23T10:11:03.006Z,2548
2017-06-23T10:12:04.399Z,2404
2017-06-23T10:13:05.789Z,2396
2017-06-23T10:14:07.179Z,2976
2017-06-23T10:15:08.564Z,3164
2017-06-23T10:16:09.950Z,3384
2017-06-23T10:17:11.340Z,1952
2017-06-23T10:18:12.731Z,2988
2017-06-23T10:19:14.127Z,3136
2017-06-23T10:20:15.524Z,3152
2017-06-23T10:21:16.907Z,2696
2017-06-23T10:22:18.306Z,2020
2017-06-23T10:23:19.691Z,1620
2017-06-23T10:24:21.077Z,1524
2017-06-23T10:25:22.467Z,2052
2017-06-23T10:26:23.851Z,2732
2017-06-23T10:27:25.241Z,2832
2017-06-23T10:28:26.639Z,2744
2017-06-23T10:29:28.031Z,2704
2017-06-23T10:30:29.431Z,2700
2017-06-23T10:31:30.810Z,2904
2017-06-23T10:32:32.201Z,2924
2017-06-23T10:33:33.587Z,2952
2017-06-23T10:34:34.981Z,3072
2017-06-23T10:35:36.370Z,2604
2017-06-23T10:36:37.765Z,2704
2017-06-23T10:37:39.161Z,2832
2017-06-23T10:38:40.551Z,2732
2017-06-23T10:39:41.956Z,2684
2017-06-23T10:40:43.335Z,2652
2017-06-23T10:41:44.767Z,2596
2017-06-23T10:42:46.212Z,2504
2017-06-23T10:43:47.598Z,2496
2017-06-23T10:44:48.991Z,2428
2017-06-23T10:45:50.379Z,2548
2017-06-23T10:46:51.773Z,2688
2017-06-23T10:47:53.150Z,2772
2017-06-23T10:48:54.551Z,2896
2017-06-23T10:49:55.944Z,2828
2017-06-23T10:50:57.628Z,2968
2017-06-23T10:51:59.018Z,3104
2017-06-23T10:53:00.406Z,3376
2017-06-23T10:54:01.805Z,3460
2017-06-23T10:55:03.192Z,3684
2017-06-23T10:56:04.581Z,3512
2017-06-23T10:57:05.970Z,3944
2017-06-23T10:58:07.366Z,3696
2017-06-23T10:59:08.761Z,3516
2017-06-23T11:00:10.152Z,3424
2017-06-23T11:01:11.539Z,3332
2017-06-23T11:02:12.939Z,3304
2017-06-23T11:03:14.316Z,3356
2017-06-23T11:04:16.398Z,3444
2017-06-23T11:05:17.786Z,3360
2017-06-23T11:06:19.177Z,3300
2017-06-23T11:07:20.568Z,3112
2017-06-23T11:08:21.955Z,2904
2017-06-23T11:09:23.348Z,2956
2017-06-23T11:10:24.742Z,2992
2017-06-23T11:11:26.133Z,2896
2017-06-23T11:12:27.527Z,3012
2017-06-23T11:13:28.914Z,3368
2017-06-23T11:14:30.330Z,3600
2017-06-23T11:15:31.720Z,3656
2017-06-23T11:16:33.109Z,3552
2017-06-23T11:17:34.500Z,3028
2017-06-23T11:18:35.889Z,3448
2017-06-23T11:19:37.282Z,3756
2017-06-23T11:20:38.670Z,2892
2017-06-23T11:21:40.058Z,2412
2017-06-23T11:22:41.452Z,2492
2017-06-23T11:23:42.839Z,2504
2017-06-23T11:24:44.233Z,2352
2017-06-23T11:25:45.617Z,2324
2017-06-23T11:26:47.012Z,2644
2017-06-23T11:27:48.482Z,2432
2017-06-23T11:28:49.810Z,2288
2017-06-23T11:29:51.207Z,2412
2017-06-23T11:30:52.599Z,2348
2017-06-23T11:31:53.990Z,2368
2017-06-23T11:32:55.382Z,2332
2017-06-23T11:33:56.769Z,2232
2017-06-23T11:34:58.158Z,2296
2017-06-23T11:35:59.548Z,2584
2017-06-23T11:37:00.938Z,2888
2017-06-23T11:38:02.349Z,2820
2017-06-23T11:39:03.720Z,2940
2017-06-23T11:40:05.107Z,2832
2017-06-23T11:41:06.503Z,2960
2017-06-23T11:42:07.937Z,3220
2017-06-23T11:43:09.332Z,3084
2017-06-23T11:44:10.724Z,2948
2017-06-23T11:45:12.113Z,2908
2017-06-23T11:46:13.494Z,2868
2017-06-23T11:47:14.892Z,3204
2017-06-23T11:48:16.279Z,3448
2017-06-23T11:49:17.670Z,2968
2017-06-23T11:50:19.062Z,2596
2017-06-23T11:51:20.445Z,3068
2017-06-23T11:52:21.838Z,3424
2017-06-23T11:53:23.237Z,2776
2017-06-23T11:54:24.630Z,2636
2017-06-23T11:55:26.016Z,2464
2017-06-23T11:56:27.412Z,2272
2017-06-23T11:57:28.802Z,2148
2017-06-23T11:58:30.195Z,2140
2017-06-23T11:59:31.586Z,2500
2017-06-23T12:00:32.980Z,2844
2017-06-23T12:01:34.368Z,2880
2017-06-23T12:02:35.759Z,3168
2017-06-23T12:03:37.161Z,3324
2017-06-23T12:04:38.551Z,3304
2017-06-23T12:05:39.936Z,3000
2017-06-23T12:06:41.328Z,2216
2017-06-23T12:07:42.718Z,1776
2017-06-23T12:08:44.095Z,1452
2017-06-23T12:09:45.485Z,1396
2017-06-23T12:10:46.869Z,1204
2017-06-23T12:11:48.261Z,1320
2017-06-23T12:12:49.652Z,1472
2017-06-23T12:13:51.038Z,1584
2017-06-23T12:14:52.431Z,1644
2017-06-23T12:15:53.817Z,2032
2017-06-23T12:16:55.210Z,2368
2017-06-23T12:17:56.597Z,2440
2017-06-23T12:18:57.984Z,2288
2017-06-23T12:19:59.375Z,2232
2017-06-23T12:21:00.774Z,2300
2017-06-23T12:22:02.164Z,2772
2017-06-23T12:23:03.551Z,3320
2017-06-23T12:24:04.939Z,3800
2017-06-23T12:25:06.333Z,4248
2017-06-23T12:26:07.721Z,4276
2017-06-23T12:27:09.110Z,4416
2017-06-23T12:28:10.499Z,4400
2017-06-23T12:29:11.890Z,4608
2017-06-23T12:30:13.276Z,4892
2017-06-23T12:31:14.667Z,4600
2017-06-23T12:32:16.056Z,4264
2017-06-23T12:33:17.442Z,4108
2017-06-23T12:34:18.835Z,3652
2017-06-23T12:35:20.229Z,2836
2017-06-23T12:36:21.613Z,2924
2017-06-23T12:37:23.005Z,2924
2017-06-23T12:38:24.395Z,3816
2017-06-23T12:39:25.795Z,3920
2017-06-23T12:40:27.210Z,3824
2017-06-23T12:41:28.600Z,3884
2017-06-23T12:42:29.990Z,4144
2017-06-23T12:43:31.375Z,4004
2017-06-23T12:44:32.771Z,4084
2017-06-23T12:45:34.163Z,3860
2017-06-23T12:46:35.552Z,3840
2017-06-23T12:47:36.952Z,3824
2017-06-23T12:48:38.338Z,3616
2017-06-23T12:49:39.732Z,3516
2017-06-23T12:50:41.117Z,3556
2017-06-23T12:51:42.528Z,3704
2017-06-23T12:52:43.904Z,3576
2017-06-23T12:53:45.293Z,3672
2017-06-23T12:54:46.688Z,3848
2017-06-23T12:55:48.077Z,3796
2017-06-23T12:56:49.476Z,4000
2017-06-23T12:57:50.870Z,3832
2017-06-23T12:58:52.265Z,3024
2017-06-23T12:59:53.653Z,3580
2017-06-23T13:00:55.040Z,3828
2017-06-23T13:01:56.426Z,3980
2017-06-23T13:02:57.819Z,3864
2017-06-23T13:03:59.211Z,2940
2017-06-23T13:05:00.607Z,3108
2017-06-23T13:06:02.003Z,3048
2017-06-23T13:07:03.393Z,3256
2017-06-23T13:08:04.791Z,3624
2017-06-23T13:09:06.208Z,3200
2017-06-23T13:10:07.581Z,3128
2017-06-23T13:11:08.990Z,3384
2017-06-23T13:12:10.384Z,3252
2017-06-23T13:13:11.773Z,3860
2017-06-23T13:14:13.163Z,3988
2017-06-23T13:15:14.553Z,4040
2017-06-23T13:16:15.949Z,3924
2017-06-23T13:17:17.334Z,3948
2017-06-23T13:18:18.829Z,3860
2017-06-23T13:19:20.228Z,3724
2017-06-23T13:20:21.620Z,3868
2017-06-23T13:21:23.006Z,3748
2017-06-23T13:22:24.399Z,3732
2017-06-23T13:23:25.783Z,3784
2017-06-23T13:24:27.173Z,3844
2017-06-23T13:25:28.564Z,4044
2017-06-23T13:26:29.951Z,4036
2017-06-23T13:27:31.341Z,3748
2017-06-23T13:28:32.734Z,3724
2017-06-23T13:29:34.134Z,4052
2017-06-23T13:30:35.540Z,4152
2017-06-23T13:31:36.936Z,3980
2017-06-23T13:32:38.322Z,4000
2017-06-23T13:33:39.719Z,3756
2017-06-23T13:34:41.110Z,4228
2017-06-23T13:35:42.498Z,3880
2017-06-23T13:36:43.885Z,3692
2017-06-23T13:37:45.286Z,3156
2017-06-23T13:38:46.684Z,2900
2017-06-23T13:39:48.079Z,3184
2017-06-23T13:40:49.471Z,3516
2017-06-23T13:41:50.858Z,4004
2017-06-23T13:42:52.259Z,4136
2017-06-23T13:43:53.657Z,3820
2017-06-23T13:44:55.050Z,3744
2017-06-23T13:45:56.438Z,3452
2017-06-23T13:46:57.828Z,3420
2017-06-23T13:47:59.221Z,3512
2017-06-23T13:49:00.606Z,3764
2017-06-23T13:50:02.000Z,3936
2017-06-23T13:51:03.395Z,3436
2017-06-23T13:52:04.784Z,3796
2017-06-23T13:53:06.177Z,3784
2017-06-23T13:54:07.566Z,3548
2017-06-23T13:55:08.958Z,3776
2017-06-23T13:56:10.346Z,4412
2017-06-23T13:57:11.738Z,4316
2017-06-23T13:58:13.130Z,4312
2017-06-23T13:59:14.517Z,7212
2017-06-23T14:00:15.919Z,13580
2017-06-23T14:01:17.313Z,19296
2017-06-23T14:02:18.702Z,6168
2017-06-23T14:03:20.103Z,9948
2017-06-23T14:04:21.502Z,6568
2017-06-23T14:05:22.892Z,7048